Griffin, North Dakota
Current Conditions -  °F | °C
As of 5:14 PM on Monday 22 Dec 2014 (Local Time) from KHEI Reporting Station
Light Snow Light Snow  
Wind Chill: 11°   Ceiling: 4100
Heat Index: 24°   Visibility: 3mi
Dew Point: 20°   Wind: 16mph
Humidity: 84%   Direction: 310°NW
Pressure: 29.67"   Gusts: 31mph
Location:  46.1126°N, 103.431°W
Report Text: KHEI 230014Z AUTO 31014G27KT 3SM -SN BR FEW011 OVC041 M04/M07 A2967 RMK AO2 PK WND 31027/0006 P0000 T10441067
Loading
Personal Weather Stations






























Interactive Weather Map New forecast layout! Learn more

10-Day Weather Forecast

Advertisements
Track Severe Weather on mobile